Time;durP1;ratioP1;P1;durP2;ratioP2;P2;SDS_P1;SDS_P2;PMS_P1;PMS_P2;Temp;Humidity;BMP_temperature;BMP_pressure;BME280_temperature;BME280_humidity;BME280_pressure;Samples;Min_cycle;Max_cycle;Signal;HPM_P1;HPM_P2
2021/06/17 00:00:14;;;;;;;7.07;6.37;;;24.20;1.00;;;;;;5110150;28;20489;-78
2021/06/17 00:02:41;;;;;;;7.10;6.40;;;24.20;1.00;;;;;;5115810;28;20445;-79
2021/06/17 00:05:11;;;;;;;7.13;6.43;;;24.10;1.00;;;;;;5111279;28;20481;-78
2021/06/17 00:07:38;;;;;;;12.03;6.70;;;24.10;1.00;;;;;;5125045;27;20473;-79
2021/06/17 00:10:07;;;;;;;6.83;6.23;;;24.10;1.00;;;;;;5111240;28;20814;-78
2021/06/17 00:12:34;;;;;;;7.03;6.33;;;24.00;1.00;;;;;;5105931;28;20465;-79
2021/06/17 00:15:01;;;;;;;8.13;7.33;;;24.00;1.00;;;;;;5114242;28;20443;-77
2021/06/17 00:17:29;;;;;;;7.47;6.70;;;23.90;1.00;;;;;;5112629;28;20478;-77
2021/06/17 00:19:56;;;;;;;7.27;6.57;;;23.90;1.00;;;;;;5105870;28;20497;-78
2021/06/17 00:22:23;;;;;;;7.50;6.80;;;23.90;1.00;;;;;;5116434;28;20443;-76
2021/06/17 00:24:50;;;;;;;6.93;6.33;;;23.80;1.00;;;;;;5113970;28;20461;-77
2021/06/17 00:27:17;;;;;;;9.07;6.20;;;23.80;1.00;;;;;;5115060;28;20458;-78
2021/06/17 00:29:44;;;;;;;7.53;6.80;;;23.80;1.00;;;;;;5109056;28;20463;-78
2021/06/17 00:32:10;;;;;;;7.97;6.90;;;23.80;1.00;;;;;;5112161;28;20435;-78
2021/06/17 00:34:39;;;;;;;7.70;7.10;;;23.70;1.00;;;;;;5111561;28;20501;-77
2021/06/17 00:37:06;;;;;;;7.50;6.80;;;23.70;1.00;;;;;;5104489;28;20478;-76
2021/06/17 00:39:33;;;;;;;8.57;6.90;;;23.70;1.00;;;;;;5098236;28;20479;-78
2021/06/17 00:42:00;;;;;;;8.17;6.40;;;23.60;1.00;;;;;;5103020;28;20450;-79
2021/06/17 00:44:26;;;;;;;7.63;6.60;;;23.60;1.00;;;;;;5104836;28;20482;-77
2021/06/17 00:46:53;;;;;;;7.90;7.20;;;23.50;1.00;;;;;;5106013;28;20470;-76
2021/06/17 00:49:20;;;;;;;7.13;6.53;;;23.50;1.00;;;;;;5112362;28;20935;-78
2021/06/17 00:51:48;;;;;;;6.10;5.60;;;23.50;1.00;;;;;;5110501;28;20454;-78
2021/06/17 00:54:31;;;;;;;7.80;7.10;;;23.50;1.00;;;;;;5108517;28;20458;-78
2021/06/17 00:56:58;;;;;;;10.30;6.50;;;23.50;1.00;;;;;;5113219;28;20463;-77
2021/06/17 00:59:25;;;;;;;8.27;7.40;;;23.40;44.60;;;;;;5103391;28;20470;-77
2021/06/17 01:01:52;;;;;;;8.20;7.00;;;23.40;78.20;;;;;;5112489;28;20446;-79
2021/06/17 01:04:19;;;;;;;7.97;7.17;;;23.30;99.90;;;;;;5113448;28;20437;-78
2021/06/17 01:06:47;;;;;;;7.90;7.10;;;23.30;99.90;;;;;;5102520;28;20470;-78
2021/06/17 01:09:24;;;;;;;7.40;6.60;;;23.30;99.90;;;;;;5096119;28;20455;-77
2021/06/17 01:11:58;;;;;;;7.60;6.90;;;23.30;99.90;;;;;;5112308;28;20793;-79
2021/06/17 01:14:30;;;;;;;7.80;6.87;;;23.20;99.90;;;;;;5108415;28;20836;-80
2021/06/17 01:17:07;;;;;;;8.77;7.33;;;23.20;99.90;;;;;;5112384;28;20467;-75
2021/06/17 01:19:45;;;;;;;6.77;6.20;;;23.20;99.90;;;;;;5111163;28;20857;-76
2021/06/17 01:22:22;;;;;;;6.60;6.00;;;23.20;99.90;;;;;;5113360;28;20438;-79
2021/06/17 01:25:10;;;;;;;7.90;7.30;;;23.10;99.90;;;;;;5103098;28;20447;-78
2021/06/17 01:27:55;;;;;;;7.23;6.50;;;23.10;99.90;;;;;;5108415;27;20482;-79
2021/06/17 01:30:23;;;;;;;8.20;7.50;;;23.10;99.90;;;;;;5099194;28;20480;-77
2021/06/17 01:32:55;;;;;;;8.10;7.30;;;23.00;99.90;;;;;;5118082;27;20477;-78
2021/06/17 01:35:25;;;;;;;8.03;7.23;;;23.00;99.90;;;;;;5111513;28;20449;-77
2021/06/17 01:37:56;;;;;;;7.37;6.77;;;23.00;99.90;;;;;;5111288;28;20815;-77
2021/06/17 01:40:25;;;;;;;6.97;6.23;;;23.00;99.90;;;;;;5107926;28;20827;-78
2021/06/17 01:42:54;;;;;;;8.40;7.60;;;22.90;99.90;;;;;;5105623;28;20462;-77
2021/06/17 01:45:23;;;;;;;7.70;7.00;;;22.90;99.90;;;;;;5113195;28;20450;-78
2021/06/17 01:47:52;;;;;;;8.00;7.30;;;22.80;1.00;;;;;;5106758;28;20461;-77
2021/06/17 01:50:23;;;;;;;7.73;7.00;;;22.80;1.00;;;;;;5110024;28;20464;-79
2021/06/17 01:52:51;;;;;;;8.30;7.40;;;22.80;1.00;;;;;;5113501;28;20475;-76
2021/06/17 01:55:18;;;;;;;7.70;7.00;;;22.80;1.00;;;;;;5103480;28;20927;-77
2021/06/17 01:57:47;;;;;;;7.37;6.67;;;22.70;1.00;;;;;;5100881;28;20461;-78
2021/06/17 02:00:16;;;;;;;7.87;7.17;;;22.70;1.00;;;;;;5112342;28;21053;-80
2021/06/17 02:02:45;;;;;;;7.40;6.70;;;22.70;1.00;;;;;;5109937;28;20927;-77
2021/06/17 02:05:13;;;;;;;8.37;6.67;;;22.70;1.00;;;;;;5111064;28;20443;-77
2021/06/17 02:07:44;;;;;;;7.87;7.10;;;22.60;1.00;;;;;;5110941;28;20458;-79
2021/06/17 02:10:12;;;;;;;7.87;6.47;;;22.60;1.00;;;;;;5107924;28;20458;-76
2021/06/17 02:12:40;;;;;;;9.20;6.43;;;22.60;1.00;;;;;;5112944;28;20443;-76
2021/06/17 02:15:09;;;;;;;7.67;7.07;;;22.60;1.00;;;;;;5101586;28;20978;-76
2021/06/17 02:17:38;;;;;;;8.23;7.07;;;22.50;1.00;;;;;;5108246;28;20527;-78
2021/06/17 02:20:07;;;;;;;8.03;7.10;;;22.50;1.00;;;;;;5110680;28;20862;-77
2021/06/17 02:22:35;;;;;;;7.60;6.83;;;22.50;1.00;;;;;;5103333;28;20830;-78
2021/06/17 02:25:02;;;;;;;8.50;6.97;;;22.50;1.00;;;;;;5096001;28;21074;-78
2021/06/17 02:27:31;;;;;;;7.53;6.83;;;22.40;1.00;;;;;;5105281;28;20474;-78
2021/06/17 02:30:01;;;;;;;7.73;7.00;;;22.40;5.30;;;;;;5109579;28;20434;-77
2021/06/17 02:32:30;;;;;;;7.47;6.77;;;22.40;15.90;;;;;;5105367;28;20466;-77
2021/06/17 02:35:00;;;;;;;7.17;6.47;;;22.40;48.80;;;;;;5093967;28;20458;-77
2021/06/17 02:37:28;;;;;;;9.50;7.00;;;22.30;78.90;;;;;;5091848;28;20814;-77
2021/06/17 02:39:56;;;;;;;8.20;6.37;;;22.30;95.80;;;;;;5095960;28;20482;-77
2021/06/17 02:42:25;;;;;;;8.03;7.23;;;22.30;99.90;;;;;;5110768;28;20453;-77
2021/06/17 02:44:53;;;;;;;7.17;6.43;;;22.30;99.90;;;;;;5109556;28;20550;-78
2021/06/17 02:47:20;;;;;;;9.10;6.87;;;22.30;99.90;;;;;;5110172;28;20474;-76
2021/06/17 02:49:47;;;;;;;7.40;6.70;;;22.30;99.90;;;;;;5106205;28;20485;-75
2021/06/17 02:52:15;;;;;;;8.07;6.13;;;22.30;99.90;;;;;;5109453;28;20470;-76
2021/06/17 02:54:42;;;;;;;8.33;7.30;;;22.20;99.90;;;;;;5102093;28;20466;-77
2021/06/17 02:57:17;;;;;;;8.00;7.20;;;22.20;99.90;;;;;;5102691;28;20989;-77
2021/06/17 02:59:56;;;;;;;6.50;5.90;;;22.20;99.90;;;;;;5111145;28;20481;-75
2021/06/17 03:02:34;;;;;;;6.90;6.30;;;22.20;99.90;;;;;;5109612;28;20912;-76
2021/06/17 03:05:08;;;;;;;7.60;6.73;;;22.20;99.90;;;;;;5109359;28;20927;-76
2021/06/17 03:07:45;;;;;;;7.43;6.77;;;22.10;99.90;;;;;;5106486;28;20482;-76
2021/06/17 03:10:13;;;;;;;6.77;6.17;;;22.10;99.90;;;;;;5105721;28;20822;-75
2021/06/17 03:12:45;;;;;;;8.47;7.30;;;22.10;99.90;;;;;;5110887;28;20810;-75
2021/06/17 03:15:13;;;;;;;7.83;6.80;;;22.00;99.90;;;;;;5105432;28;20455;-78
2021/06/17 03:17:45;;;;;;;7.13;6.53;;;22.00;99.90;;;;;;5102032;28;20459;-78
2021/06/17 03:20:14;;;;;;;8.43;6.40;;;22.00;1.00;;;;;;5091079;28;20531;-77
2021/06/17 03:22:48;;;;;;;11.33;7.30;;;22.00;1.00;;;;;;5108237;28;20979;-78
2021/06/17 03:25:20;;;;;;;6.40;5.80;;;22.00;1.00;;;;;;5106084;28;20946;-77
2021/06/17 03:27:51;;;;;;;7.30;6.60;;;22.00;1.00;;;;;;5107177;28;20454;-78
2021/06/17 03:30:21;;;;;;;7.40;6.70;;;22.00;1.00;;;;;;5097797;28;20466;-77
2021/06/17 03:32:49;;;;;;;7.83;7.03;;;22.00;1.00;;;;;;5109543;28;20903;-76
2021/06/17 03:35:19;;;;;;;7.20;6.50;;;22.00;1.00;;;;;;5106298;28;20461;-77
2021/06/17 03:37:49;;;;;;;7.73;7.10;;;22.00;1.00;;;;;;5109327;28;20473;-77
2021/06/17 03:40:17;;;;;;;7.80;7.00;;;21.90;1.00;;;;;;5111611;28;20485;-76
2021/06/17 03:42:44;;;;;;;8.23;6.90;;;21.90;1.00;;;;;;5102973;28;20500;-77
2021/06/17 03:45:14;;;;;;;7.60;6.97;;;21.90;1.00;;;;;;5097625;28;20954;-77
2021/06/17 03:47:44;;;;;;;7.27;6.63;;;21.90;1.00;;;;;;5107481;28;20455;-77
2021/06/17 03:50:13;;;;;;;6.47;5.87;;;21.90;1.00;;;;;;5098530;28;20773;-76
2021/06/17 03:52:41;;;;;;;6.73;6.10;;;21.90;1.00;;;;;;5100845;28;20450;-78
2021/06/17 03:55:12;;;;;;;8.90;7.80;;;21.90;1.00;;;;;;5104590;28;20454;-78
2021/06/17 03:57:40;;;;;;;6.97;6.27;;;21.90;1.00;;;;;;5109984;28;20454;-77
2021/06/17 04:00:08;;;;;;;8.23;7.53;;;21.90;1.00;;;;;;5111083;28;20481;-77
2021/06/17 04:02:35;;;;;;;7.70;7.00;;;22.00;1.00;;;;;;5109761;28;20533;-76
2021/06/17 04:05:03;;;;;;;8.70;7.50;;;22.00;1.00;;;;;;5114966;28;20506;-77
2021/06/17 04:07:32;;;;;;;7.77;6.97;;;22.00;1.00;;;;;;5106518;28;20574;-78
2021/06/17 04:10:01;;;;;;;7.40;6.70;;;22.00;1.00;;;;;;5115502;28;20442;-76
2021/06/17 04:15:25;;;;;;;6.93;6.33;;;22.10;1.00;;;;;;5109069;28;20458;-78
2021/06/17 04:17:55;;;;;;;6.97;6.27;;;22.20;1.00;;;;;;5111294;28;20463;-77
2021/06/17 04:20:25;;;;;;;6.77;6.17;;;22.20;1.00;;;;;;5105046;28;20496;-77
2021/06/17 04:22:55;;;;;;;6.90;6.30;;;22.30;1.00;;;;;;5114172;28;20442;-77
2021/06/17 04:25:23;;;;;;;7.47;6.70;;;22.30;1.00;;;;;;5112869;28;20449;-77
2021/06/17 04:27:56;;;;;;;7.33;6.37;;;22.40;1.00;;;;;;5106955;28;20458;-77
2021/06/17 04:30:26;;;;;;;7.23;6.63;;;22.40;1.00;;;;;;5110979;28;20821;-78
2021/06/17 04:32:55;;;;;;;7.03;6.33;;;22.50;1.00;;;;;;5109799;28;20966;-77
2021/06/17 04:35:23;;;;;;;7.77;6.30;;;22.50;1.00;;;;;;5099708;28;20491;-76
2021/06/17 04:37:52;;;;;;;9.37;6.37;;;22.60;1.00;;;;;;5096449;28;20455;-77
2021/06/17 04:40:21;;;;;;;5.93;5.40;;;22.70;1.00;;;;;;5123457;27;20515;-77
2021/06/17 04:42:52;;;;;;;6.77;6.17;;;22.80;1.00;;;;;;5112418;28;20465;-76
2021/06/17 04:45:22;;;;;;;7.07;6.37;;;22.90;1.00;;;;;;5114538;28;20438;-77
2021/06/17 04:47:50;;;;;;;7.70;5.87;;;22.90;99.90;;;;;;5111723;28;20455;-78
2021/06/17 04:50:19;;;;;;;6.53;5.90;;;23.00;99.90;;;;;;5104629;28;20458;-76
2021/06/17 04:53:09;;;;;;;6.70;6.10;;;23.10;99.90;;;;;;5111266;28;20442;-77
2021/06/17 04:55:42;;;;;;;7.23;5.90;;;23.20;99.90;;;;;;5106049;28;20561;-77
2021/06/17 04:58:10;;;;;;;7.50;5.73;;;23.30;99.90;;;;;;5104159;28;20458;-76
2021/06/17 05:00:37;;;;;;;5.33;4.83;;;23.40;99.90;;;;;;5112811;28;20481;-77
2021/06/17 05:03:05;;;;;;;6.23;5.67;;;23.50;99.90;;;;;;5111272;27;20454;-77
2021/06/17 05:05:32;;;;;;;8.70;6.07;;;23.60;99.90;;;;;;5113920;28;20473;-76
2021/06/17 05:13:24;;;;;;;7.97;5.80;;;23.90;1.00;;;;;;5099526;28;20422;-76
2021/06/17 05:15:53;;;;;;;7.63;5.80;;;24.00;1.00;;;;;;5104664;28;20481;-78
2021/06/17 05:18:22;;;;;;;7.13;6.00;;;24.10;1.00;;;;;;5111130;28;20458;-78
2021/06/17 05:20:49;;;;;;;10.20;5.80;;;24.20;1.00;;;;;;5109900;28;20478;-76
2021/06/17 05:23:19;;;;;;;6.37;5.77;;;24.30;1.00;;;;;;5115286;27;20951;-76
2021/06/17 05:25:46;;;;;;;7.80;5.60;;;24.40;1.00;;;;;;5112961;28;20470;-77
2021/06/17 05:28:14;;;;;;;6.10;5.60;;;24.50;1.00;;;;;;5112084;28;20468;-78
2021/06/17 05:30:43;;;;;;;8.17;5.50;;;24.60;1.00;;;;;;5104503;28;20458;-76
2021/06/17 05:33:10;;;;;;;11.23;5.67;;;24.70;1.00;;;;;;5109247;28;20454;-77
2021/06/17 05:35:38;;;;;;;6.80;6.20;;;24.80;1.00;;;;;;5110156;28;20554;-74
2021/06/17 05:38:05;;;;;;;6.57;5.53;;;24.90;99.90;;;;;;5105430;28;20451;-76
2021/06/17 05:40:32;;;;;;;6.23;5.63;;;25.00;99.90;;;;;;5112286;28;20517;-76
2021/06/17 05:42:59;;;;;;;7.37;6.00;;;25.20;99.90;;;;;;5107936;28;20775;-77
2021/06/17 05:45:26;;;;;;;6.50;5.67;;;25.40;99.90;;;;;;5098060;27;20443;-76
2021/06/17 05:47:55;;;;;;;7.50;5.43;;;25.50;99.90;;;;;;5102046;28;20991;-78
2021/06/17 05:50:21;;;;;;;7.43;6.10;;;25.70;99.90;;;;;;5100018;28;20453;-78
2021/06/17 05:52:48;;;;;;;5.90;5.30;;;25.80;99.90;;;;;;5111642;28;20438;-80
2021/06/17 05:55:15;;;;;;;6.80;5.30;;;26.10;93.20;;;;;;5105675;28;20943;-77
2021/06/17 05:57:43;;;;;;;5.63;5.10;;;26.20;59.90;;;;;;5109757;28;20422;-76
2021/06/17 06:00:11;;;;;;;7.17;6.20;;;26.30;8.50;;;;;;5104739;28;20446;-76
2021/06/17 06:02:38;;;;;;;6.63;4.93;;;26.50;1.00;;;;;;5102166;28;20450;-77
2021/06/17 06:05:07;;;;;;;4.93;4.53;;;26.70;1.00;;;;;;5110942;28;20439;-75
2021/06/17 06:07:34;;;;;;;6.60;4.80;;;26.90;1.00;;;;;;5110740;28;20492;-76
2021/06/17 06:10:03;;;;;;;5.00;4.50;;;27.00;1.00;;;;;;5101703;27;20451;-76
2021/06/17 06:12:30;;;;;;;6.40;5.17;;;27.10;1.00;;;;;;5109847;28;20928;-77
2021/06/17 06:14:57;;;;;;;5.30;4.80;;;27.20;1.00;;;;;;5103963;28;20463;-77
2021/06/17 06:17:23;;;;;;;7.07;4.90;;;27.40;1.00;;;;;;5111224;28;20815;-77
2021/06/17 06:19:51;;;;;;;6.03;5.10;;;27.50;1.00;;;;;;5111886;28;20470;-77
2021/06/17 06:22:19;;;;;;;6.30;4.53;;;27.70;1.00;;;;;;5105033;28;20489;-76
2021/06/17 06:24:46;;;;;;;7.40;4.30;;;27.80;99.90;;;;;;5108657;28;20458;-77
2021/06/17 06:27:13;;;;;;;5.70;5.20;;;27.90;99.90;;;;;;5104967;28;20468;-76
2021/06/17 06:29:41;;;;;;;5.73;4.27;;;28.00;99.90;;;;;;5108381;28;20475;-76
2021/06/17 06:32:09;;;;;;;5.73;5.20;;;28.10;99.90;;;;;;5110438;28;20446;-76
2021/06/17 06:34:36;;;;;;;5.27;4.43;;;28.10;99.90;;;;;;5109784;28;20462;-75
2021/06/17 06:37:04;;;;;;;5.37;4.40;;;28.30;99.90;;;;;;5110970;28;20465;-76
2021/06/17 06:39:32;;;;;;;6.03;4.63;;;28.40;99.90;;;;;;5103700;28;21320;-75
2021/06/17 06:42:00;;;;;;;4.40;4.00;;;28.50;99.90;;;;;;5098961;28;20498;-75
2021/06/17 06:44:26;;;;;;;8.83;4.87;;;28.70;99.90;;;;;;5111715;28;20494;-75
2021/06/17 06:46:54;;;;;;;4.70;4.30;;;28.90;99.90;;;;;;5110152;28;20827;-76
2021/06/17 06:49:20;;;;;;;4.60;4.13;;;29.00;99.90;;;;;;5104867;28;20520;-75
2021/06/17 06:51:48;;;;;;;6.50;4.20;;;29.20;99.90;;;;;;5110127;28;20478;-75
2021/06/17 06:54:18;;;;;;;4.67;4.27;;;29.30;99.90;;;;;;5109014;28;20931;-76
2021/06/17 06:56:47;;;;;;;5.13;4.63;;;29.40;99.90;;;;;;5102094;28;20501;-75
2021/06/17 06:59:14;;;;;;;7.10;4.70;;;29.60;99.90;;;;;;5095843;28;20446;-75
2021/06/17 07:01:41;;;;;;;4.73;4.23;;;29.70;99.90;;;;;;5103969;28;20484;-76
2021/06/17 07:04:08;;;;;;;4.70;4.30;;;29.90;38.20;;;;;;5104459;28;20486;-76
2021/06/17 07:06:35;;;;;;;7.00;4.50;;;30.20;1.00;;;;;;5113065;28;20475;-77
2021/06/17 07:09:03;;;;;;;6.40;4.73;;;30.30;1.00;;;;;;5109896;28;20455;-77
2021/06/17 07:11:29;;;;;;;5.53;3.80;;;30.50;1.00;;;;;;5105322;28;20450;-76
2021/06/17 07:13:58;;;;;;;6.00;4.40;;;30.70;1.00;;;;;;5110210;28;20435;-77
2021/06/17 07:16:25;;;;;;;7.13;4.30;;;30.90;1.00;;;;;;5098890;28;20469;-75
2021/06/17 07:18:54;;;;;;;5.03;4.47;;;31.10;1.00;;;;;;5107073;28;21175;-78
2021/06/17 07:21:21;;;;;;;5.43;4.03;;;31.30;1.00;;;;;;5109105;28;20978;-77
2021/06/17 07:23:51;;;;;;;8.70;4.53;;;31.40;1.00;;;;;;5103954;28;20455;-78
2021/06/17 07:26:20;;;;;;;4.50;4.10;;;31.70;1.00;;;;;;5107214;28;20466;-77
2021/06/17 07:28:47;;;;;;;6.03;4.40;;;31.80;1.00;;;;;;5117026;28;20489;-77
2021/06/17 07:31:16;;;;;;;5.90;4.20;;;32.10;1.00;;;;;;5112367;28;20450;-76
2021/06/17 07:33:43;;;;;;;6.20;4.00;;;32.40;1.00;;;;;;5107148;28;20923;-75
2021/06/17 07:36:10;;;;;;;5.00;4.23;;;32.60;1.00;;;;;;5116303;28;20460;-76
2021/06/17 07:38:37;;;;;;;4.37;4.00;;;32.90;1.00;;;;;;5111546;27;20558;-76
2021/06/17 07:41:04;;;;;;;5.37;4.20;;;33.40;99.90;;;;;;5099404;28;20485;-76
2021/06/17 07:43:32;;;;;;;4.67;4.30;;;33.90;99.90;;;;;;5108494;28;20462;-77
2021/06/17 07:45:59;;;;;;;4.63;4.23;;;34.40;99.90;;;;;;5113164;28;20535;-77
2021/06/17 07:48:27;;;;;;;4.90;3.87;;;34.80;99.90;;;;;;5108532;28;20875;-76
2021/06/17 07:50:55;;;;;;;4.03;3.63;;;35.30;99.90;;;;;;5108475;28;20457;-77
2021/06/17 07:53:22;;;;;;;4.57;3.57;;;35.80;99.90;;;;;;5110914;28;20555;-76
2021/06/17 07:55:49;;;;;;;6.30;4.30;;;36.30;99.90;;;;;;5104428;28;20843;-77
2021/06/17 07:58:17;;;;;;;4.93;4.20;;;36.60;99.90;;;;;;5114343;28;20446;-76
2021/06/17 08:00:44;;;;;;;6.90;3.80;;;36.90;99.90;;;;;;5097932;28;20463;-77
2021/06/17 08:03:11;;;;;;;3.90;3.50;;;37.20;99.90;;;;;;5101158;28;20461;-77
2021/06/17 08:05:39;;;;;;;4.80;3.90;;;37.50;99.90;;;;;;5109471;28;20486;-77
2021/06/17 08:08:08;;;;;;;6.57;3.77;;;37.80;99.90;;;;;;5101691;28;20446;-77
2021/06/17 08:10:35;;;;;;;4.43;3.83;;;38.10;99.90;;;;;;5114011;28;20444;-75
2021/06/17 08:13:02;;;;;;;3.93;3.50;;;38.30;90.40;;;;;;5112574;28;20429;-77
2021/06/17 08:15:29;;;;;;;5.60;4.07;;;38.50;50.10;;;;;;5112698;28;20434;-77
2021/06/17 08:17:56;;;;;;;4.40;4.00;;;38.70;13.90;;;;;;5105583;28;20451;-76
2021/06/17 08:20:23;;;;;;;4.47;3.93;;;38.90;1.00;;;;;;5104042;28;20518;-77
2021/06/17 08:22:52;;;;;;;5.30;4.37;;;39.00;1.00;;;;;;5100675;27;20492;-78
2021/06/17 08:25:19;;;;;;;4.60;3.60;;;39.20;1.00;;;;;;5111801;28;20813;-76
2021/06/17 08:27:46;;;;;;;4.13;3.73;;;39.50;1.00;;;;;;5112108;28;20437;-76
2021/06/17 08:30:17;;;;;;;6.30;3.90;;;39.70;1.00;;;;;;5106003;28;20472;-76
2021/06/17 08:32:44;;;;;;;6.50;4.17;;;40.00;1.00;;;;;;5113844;28;20458;-77
2021/06/17 08:35:13;;;;;;;4.87;3.63;;;40.10;1.00;;;;;;5108635;28;20469;-76
2021/06/17 08:37:40;;;;;;;4.50;3.97;;;40.00;1.00;;;;;;5091497;28;20464;-76
2021/06/17 08:40:10;;;;;;;7.90;3.83;;;40.10;1.00;;;;;;5113011;28;20445;-76
2021/06/17 08:42:37;;;;;;;4.00;3.70;;;40.30;1.00;;;;;;5109579;28;20556;-76
2021/06/17 08:45:09;;;;;;;4.77;4.23;;;40.40;1.00;;;;;;5093645;28;20435;-77
2021/06/17 08:47:36;;;;;;;6.47;3.63;;;40.70;1.00;;;;;;5117437;27;21001;-77
2021/06/17 08:50:04;;;;;;;4.10;3.70;;;41.00;1.00;;;;;;5111146;28;20454;-77
2021/06/17 08:52:34;;;;;;;5.43;4.50;;;41.30;1.00;;;;;;5101416;28;20939;-79
2021/06/17 08:55:13;;;;;;;4.43;3.90;;;41.60;1.00;;;;;;5096859;28;20812;-78
2021/06/17 08:57:40;;;;;;;4.37;3.70;;;41.60;1.00;;;;;;5110704;28;20457;-77
2021/06/17 09:00:31;;;;;;;4.47;3.97;;;41.90;1.00;;;;;;5100352;28;20470;-77
2021/06/17 09:03:01;;;;;;;5.13;3.73;;;42.10;1.00;;;;;;5114619;28;20564;-78
2021/06/17 09:05:30;;;;;;;4.63;3.83;;;42.40;1.00;;;;;;5111402;27;20457;-77
2021/06/17 09:07:57;;;;;;;4.73;3.50;;;42.40;1.00;;;;;;5113059;28;20512;-77
2021/06/17 09:10:27;;;;;;;3.97;3.57;;;42.50;99.90;;;;;;5111507;28;20453;-77
2021/06/17 09:12:55;;;;;;;4.63;3.60;;;42.50;99.90;;;;;;5110814;28;20434;-77
2021/06/17 09:15:38;;;;;;;4.10;3.30;;;42.20;99.90;;;;;;5111495;28;20444;-78
2021/06/17 09:18:14;;;;;;;5.50;3.80;;;42.20;99.90;;;;;;5097673;28;20456;-77
2021/06/17 09:20:45;;;;;;;5.90;3.90;;;42.10;99.90;;;;;;5112052;28;20568;-78
2021/06/17 09:23:22;;;;;;;4.10;3.70;;;42.10;99.90;;;;;;5113698;28;20481;-78
2021/06/17 09:25:51;;;;;;;4.70;4.30;;;42.00;99.90;;;;;;5111987;28;20830;-76
2021/06/17 09:28:18;;;;;;;4.40;4.00;;;41.50;99.90;;;;;;5103656;28;20809;-78
2021/06/17 09:30:45;;;;;;;4.53;3.40;;;41.30;99.90;;;;;;5107071;28;20880;-77
2021/06/17 09:33:14;;;;;;;7.00;3.77;;;40.90;99.90;;;;;;5107586;28;20451;-77
2021/06/17 09:35:50;;;;;;;4.80;4.03;;;40.50;99.90;;;;;;5110399;28;20529;-77
2021/06/17 09:38:18;;;;;;;6.03;4.40;;;39.90;99.90;;;;;;5099703;28;21138;-77
2021/06/17 09:40:47;;;;;;;5.60;3.80;;;39.20;99.90;;;;;;5108744;28;20442;-76
2021/06/17 09:43:18;;;;;;;4.90;4.50;;;38.70;99.90;;;;;;5106609;28;20508;-76
2021/06/17 09:45:57;;;;;;;7.30;4.13;;;38.50;92.00;;;;;;5095848;28;20479;-78
2021/06/17 09:48:40;;;;;;;4.97;4.30;;;38.00;73.40;;;;;;5102450;28;20769;-75
2021/06/17 09:51:33;;;;;;;10.10;4.77;;;37.40;28.10;;;;;;5092510;28;20446;-75
2021/06/17 09:54:14;;;;;;;4.30;3.90;;;36.80;11.70;;;;;;5106561;28;20455;-77
2021/06/17 09:56:43;;;;;;;4.70;3.90;;;36.50;1.30;;;;;;5083534;28;20463;-75
2021/06/17 09:59:11;;;;;;;6.43;4.33;;;36.10;1.00;;;;;;5106048;28;20991;-74
2021/06/17 10:01:44;;;;;;;4.10;3.80;;;35.80;1.00;;;;;;5107617;27;20462;-76
2021/06/17 10:04:13;;;;;;;4.43;4.00;;;35.70;1.00;;;;;;5099424;28;20458;-77
2021/06/17 10:06:42;;;;;;;4.10;3.80;;;35.50;1.00;;;;;;5103776;28;21038;-76
2021/06/17 10:09:11;;;;;;;4.60;4.20;;;35.30;1.30;;;;;;5095583;28;20468;-76
2021/06/17 10:11:38;;;;;;;7.20;5.00;;;35.20;4.80;;;;;;5098474;28;20465;-75
2021/06/17 10:14:07;;;;;;;5.13;4.63;;;34.80;1.00;;;;;;5100666;28;20800;-77
2021/06/17 10:16:38;;;;;;;5.97;4.87;;;34.60;1.70;;;;;;5118683;27;21009;-75
2021/06/17 10:19:06;;;;;;;4.90;4.50;;;34.40;4.20;;;;;;5105998;28;20966;-77
2021/06/17 10:21:33;;;;;;;6.77;5.00;;;34.30;14.70;;;;;;5102855;28;20481;-79
2021/06/17 10:24:01;;;;;;;9.23;4.87;;;34.20;19.60;;;;;;5094114;28;20469;-78
2021/06/17 10:26:30;;;;;;;7.27;4.70;;;34.00;11.90;;;;;;5098387;28;20840;-77
2021/06/17 10:28:58;;;;;;;6.43;4.43;;;33.80;11.90;;;;;;5097772;28;20532;-75
2021/06/17 10:31:50;;;;;;;4.60;4.20;;;33.70;14.30;;;;;;5099396;28;20459;-72
2021/06/17 10:34:36;;;;;;;5.20;3.97;;;33.60;46.70;;;;;;5098602;28;20470;-76
2021/06/17 10:37:09;;;;;;;4.70;4.23;;;33.60;26.20;;;;;;5104709;28;20450;-75
2021/06/17 10:39:38;;;;;;;4.70;4.30;;;33.50;27.00;;;;;;5101973;28;20451;-72
2021/06/17 10:42:27;;;;;;;4.80;4.00;;;33.50;22.70;;;;;;5098350;28;20475;-76
2021/06/17 10:44:56;;;;;;;4.70;4.30;;;33.40;21.40;;;;;;5112978;28;20523;-76
2021/06/17 10:47:53;;;;;;;4.77;4.03;;;33.40;44.30;;;;;;5096808;28;20490;-75
2021/06/17 10:50:24;;;;;;;4.93;4.50;;;33.40;31.00;;;;;;5081267;28;20951;-76
2021/06/17 10:52:53;;;;;;;4.10;3.80;;;33.40;17.90;;;;;;5105381;28;20970;-75
2021/06/17 10:55:21;;;;;;;10.13;3.80;;;33.40;10.30;;;;;;5103326;28;20447;-72
2021/06/17 10:57:51;;;;;;;4.67;3.87;;;33.30;1.00;;;;;;5094280;28;20459;-74
2021/06/17 11:00:47;;;;;;;4.47;4.07;;;33.40;1.00;;;;;;5121439;27;20450;-74
2021/06/17 11:03:38;;;;;;;8.07;4.00;;;33.40;1.00;;;;;;5122135;27;20607;-75
2021/06/17 11:06:06;;;;;;;4.20;3.80;;;33.40;1.00;;;;;;5099275;28;20473;-75
2021/06/17 11:08:34;;;;;;;6.43;4.00;;;33.40;1.00;;;;;;5099833;28;20533;-75
2021/06/17 11:11:02;;;;;;;4.10;3.80;;;33.40;1.00;;;;;;5107555;28;20457;-76
2021/06/17 11:13:30;;;;;;;5.10;3.90;;;33.40;1.00;;;;;;5104684;28;20470;-77
2021/06/17 11:16:00;;;;;;;5.33;3.67;;;33.40;1.00;;;;;;5112324;28;20454;-76
2021/06/17 11:19:07;;;;;;;5.03;4.53;;;33.40;1.00;;;;;;5106759;27;20927;-77
2021/06/17 11:21:45;;;;;;;4.20;3.90;;;33.50;1.00;;;;;;5097144;28;20868;-77
2021/06/17 11:24:29;;;;;;;5.53;4.07;;;33.50;8.90;;;;;;5097231;28;21061;-77
2021/06/17 11:26:56;;;;;;;4.10;3.70;;;33.50;10.80;;;;;;5090351;28;20466;-77
2021/06/17 11:29:57;;;;;;;5.10;4.07;;;33.60;18.20;;;;;;5105691;28;20466;-77
2021/06/17 11:32:27;;;;;;;4.53;4.23;;;33.60;1.00;;;;;;5109308;28;20459;-77
2021/06/17 11:34:55;;;;;;;4.50;4.10;;;33.70;1.00;;;;;;5106161;28;20455;-77
2021/06/17 11:37:28;;;;;;;5.80;4.07;;;33.70;1.00;;;;;;5092750;28;20594;-78
2021/06/17 11:39:55;;;;;;;4.63;4.33;;;33.70;1.00;;;;;;5116517;27;21003;-78
2021/06/17 11:42:22;;;;;;;7.10;4.13;;;33.70;1.00;;;;;;5111025;28;21003;-77
2021/06/17 11:45:08;;;;;;;5.43;4.13;;;33.80;1.00;;;;;;5112277;28;20484;-76
2021/06/17 11:47:45;;;;;;;5.30;4.20;;;33.80;1.00;;;;;;5104916;28;20473;-77
2021/06/17 11:50:13;;;;;;;4.83;4.33;;;33.90;1.00;;;;;;5113375;28;20502;-77
2021/06/17 11:52:45;;;;;;;4.50;4.10;;;33.90;1.00;;;;;;5111964;28;20803;-76
2021/06/17 11:55:12;;;;;;;5.40;4.50;;;33.90;1.00;;;;;;5120516;27;20457;-76
2021/06/17 11:57:40;;;;;;;4.60;4.10;;;33.90;1.00;;;;;;5108541;28;20541;-77
2021/06/17 12:00:11;;;;;;;4.63;4.00;;;34.00;1.00;;;;;;5106935;28;20467;-77
2021/06/17 12:02:40;;;;;;;5.27;4.57;;;33.90;1.00;;;;;;5105122;28;20480;-75
2021/06/17 12:05:11;;;;;;;4.63;4.30;;;33.90;1.00;;;;;;5103687;28;20454;-75
2021/06/17 12:07:39;;;;;;;4.67;4.27;;;33.90;1.00;;;;;;5110215;28;20892;-76
2021/06/17 12:10:11;;;;;;;6.33;4.03;;;33.90;1.00;;;;;;5106970;28;20461;-75
2021/06/17 12:12:40;;;;;;;4.90;4.40;;;34.00;1.00;;;;;;5103119;28;20945;-75
2021/06/17 12:15:09;;;;;;;5.13;4.63;;;34.00;1.00;;;;;;5101151;28;21017;-74
2021/06/17 12:17:42;;;;;;;4.97;4.57;;;34.00;1.00;;;;;;5116860;27;20474;-74
2021/06/17 12:20:13;;;;;;;6.10;5.50;;;34.10;1.00;;;;;;5106223;28;20482;-75
2021/06/17 12:22:41;;;;;;;6.83;4.97;;;34.10;1.00;;;;;;5114240;28;20481;-75
2021/06/17 12:25:10;;;;;;;7.53;5.50;;;34.10;1.00;;;;;;5106515;28;20458;-74
2021/06/17 12:30:32;;;;;;;6.83;6.20;;;34.10;6.30;;;;;;5112371;28;20545;-76
2021/06/17 12:33:06;;;;;;;5.60;5.10;;;34.10;23.70;;;;;;5036306;28;20199;-75
2021/06/17 12:35:38;;;;;;;7.47;5.97;;;34.10;40.90;;;;;;5021122;28;20516;-75
2021/06/17 12:38:06;;;;;;;8.33;6.10;;;34.10;63.90;;;;;;5028186;28;20460;-76
2021/06/17 12:40:36;;;;;;;10.57;6.60;;;34.10;63.50;;;;;;5033570;28;21200;-75
2021/06/17 12:43:08;;;;;;;10.10;6.03;;;34.10;67.20;;;;;;5040962;28;20576;-75
2021/06/17 12:45:36;;;;;;;6.30;5.80;;;34.10;40.60;;;;;;5046754;28;20461;-74
2021/06/17 12:48:11;;;;;;;6.03;5.50;;;34.10;74.10;;;;;;5047287;28;20527;-76
2021/06/17 12:53:19;;;;;;;7.67;5.90;;;34.10;97.70;;;;;;5048394;28;20630;-73
2021/06/17 12:55:54;;;;;;;6.20;5.60;;;34.10;99.70;;;;;;5046527;28;20479;-77
2021/06/17 12:58:23;;;;;;;9.90;5.90;;;34.20;83.10;;;;;;5044783;28;20444;-76
2021/06/17 13:01:04;;;;;;;6.77;6.07;;;34.20;87.00;;;;;;5046622;28;20484;-74
2021/06/17 13:03:32;;;;;;;9.03;5.77;;;34.20;99.90;;;;;;5056791;28;20835;-75
2021/06/17 13:06:02;;;;;;;7.00;6.30;;;34.30;99.90;;;;;;5110542;28;20474;-76
2021/06/17 13:08:45;;;;;;;7.30;6.20;;;34.30;99.90;;;;;;5095497;28;20553;-74
2021/06/17 13:11:13;;;;;;;7.57;6.60;;;34.30;99.90;;;;;;5105428;28;20455;-75
2021/06/17 13:13:41;;;;;;;6.27;5.77;;;34.40;94.00;;;;;;5104292;28;20454;-75
2021/06/17 13:16:18;;;;;;;7.30;6.70;;;34.40;81.20;;;;;;5115317;28;20481;-75
2021/06/17 13:18:50;;;;;;;7.50;6.90;;;34.40;41.50;;;;;;5110813;28;20493;-74
2021/06/17 13:21:17;;;;;;;6.73;6.20;;;34.50;31.70;;;;;;5103978;28;20990;-74